Time;durP1;ratioP1;P1;durP2;ratioP2;P2;SDS_P1;SDS_P2;PMS_P1;PMS_P2;Temp;Humidity;BMP_temperature;BMP_pressure;BME280_temperature;BME280_humidity;BME280_pressure;Samples;Min_cycle;Max_cycle;Signal;HPM_P1;HPM_P2
2022/10/31 00:01:44;;;;;;;8.77;7.37;;;;;;;;;;5032202;28;20225;-73
2022/10/31 00:04:10;;;;;;;10.20;7.57;;;;;;;;;;5027205;28;20214;-73
2022/10/31 00:06:35;;;;;;;10.77;8.07;;;;;;;;;;5029721;28;20201;-74
2022/10/31 00:09:02;;;;;;;10.90;7.30;;;;;;;;;;5026855;28;20253;-73
2022/10/31 00:11:27;;;;;;;12.40;6.63;;;;;;;;;;5020697;28;20194;-73
2022/10/31 00:13:52;;;;;;;10.53;7.77;;;;;;;;;;5021678;28;20182;-74
2022/10/31 00:16:19;;;;;;;11.20;8.20;;;;;;;;;;5024167;28;20542;-74
2022/10/31 00:18:47;;;;;;;15.37;8.27;;;;;;;;;;5022862;28;20205;-71
2022/10/31 00:21:12;;;;;;;10.67;7.53;;;;;;;;;;5026051;28;20205;-73
2022/10/31 00:23:38;;;;;;;10.30;8.20;;;;;;;;;;5033160;28;21254;-73
2022/10/31 00:26:03;;;;;;;11.47;8.70;;;;;;;;;;5028316;28;20171;-73
2022/10/31 00:28:30;;;;;;;13.87;9.33;;;;;;;;;;5022090;28;20201;-73
2022/10/31 00:30:57;;;;;;;17.87;8.83;;;;;;;;;;5032324;28;20198;-74
2022/10/31 00:33:23;;;;;;;11.77;7.57;;;;;;;;;;5041000;28;20268;-73
2022/10/31 00:35:51;;;;;;;12.87;8.80;;;;;;;;;;5033809;28;20709;-74
2022/10/31 00:38:16;;;;;;;15.83;9.40;;;;;;;;;;5026655;28;20558;-74
2022/10/31 00:40:41;;;;;;;17.60;8.83;;;;;;;;;;5025036;28;20206;-74
2022/10/31 00:43:06;;;;;;;12.90;7.60;;;;;;;;;;5027282;28;20163;-74
2022/10/31 00:45:31;;;;;;;12.00;7.90;;;;;;;;;;5023000;28;20191;-74
2022/10/31 00:47:57;;;;;;;10.60;8.03;;;;;;;;;;5031643;28;20295;-73
2022/10/31 00:50:22;;;;;;;12.93;8.80;;;;;;;;;;5032887;28;20206;-73
2022/10/31 00:52:47;;;;;;;11.97;8.27;;;;;;;;;;5030921;28;20244;-73
2022/10/31 00:55:12;;;;;;;14.03;8.13;;;;;;;;;;5029289;28;20205;-74
2022/10/31 00:57:37;;;;;;;14.93;8.23;;;;;;;;;;5026893;28;20181;-74
2022/10/31 01:00:03;;;;;;;13.90;8.80;;;;;;;;;;5034552;28;20281;-74
2022/10/31 01:02:28;;;;;;;14.57;9.70;;;;;;;;;;5028743;28;20178;-73
2022/10/31 01:04:53;;;;;;;15.40;8.83;;;;;;;;;;5036945;28;20178;-73
2022/10/31 01:07:19;;;;;;;14.50;7.87;;;;;;;;;;5028364;28;20189;-75
2022/10/31 01:09:44;;;;;;;18.17;8.33;;;;;;;;;;5024104;28;20209;-72
2022/10/31 01:12:09;;;;;;;14.73;9.33;;;;;;;;;;5020157;28;20182;-74
2022/10/31 01:14:34;;;;;;;15.20;9.60;;;;;;;;;;5032550;28;20178;-74
2022/10/31 01:16:59;;;;;;;15.10;9.20;;;;;;;;;;5026243;28;20265;-74
2022/10/31 01:19:25;;;;;;;19.40;10.00;;;;;;;;;;5033055;28;20202;-73
2022/10/31 01:21:50;;;;;;;13.43;8.60;;;;;;;;;;5027566;28;20696;-73
2022/10/31 01:24:15;;;;;;;13.43;8.67;;;;;;;;;;5027029;28;20186;-74
2022/10/31 01:26:40;;;;;;;13.03;8.67;;;;;;;;;;5021159;28;20240;-74
2022/10/31 01:29:06;;;;;;;13.97;9.90;;;;;;;;;;5042209;28;20213;-73
2022/10/31 01:31:34;;;;;;;15.20;9.53;;;;;;;;;;5030732;28;20232;-74
2022/10/31 01:33:59;;;;;;;15.40;8.67;;;;;;;;;;5033268;28;20709;-73
2022/10/31 01:36:27;;;;;;;14.20;9.70;;;;;;;;;;5028034;28;20182;-74
2022/10/31 01:38:53;;;;;;;16.33;9.20;;;;;;;;;;5024018;28;20241;-74
2022/10/31 01:41:23;;;;;;;14.43;8.40;;;;;;;;;;5023934;28;20293;-74
2022/10/31 01:43:53;;;;;;;17.53;9.13;;;;;;;;;;5028678;28;20174;-74
2022/10/31 01:46:36;;;;;;;13.60;8.43;;;;;;;;;;5024616;28;20166;-74
2022/10/31 01:49:09;;;;;;;14.40;8.90;;;;;;;;;;5019237;28;20194;-74
2022/10/31 01:51:36;;;;;;;14.33;8.67;;;;;;;;;;5028178;28;20178;-74
2022/10/31 01:54:04;;;;;;;15.83;9.47;;;;;;;;;;5032546;28;20174;-74
2022/10/31 01:56:29;;;;;;;14.83;9.30;;;;;;;;;;5028972;28;20186;-73
2022/10/31 01:58:56;;;;;;;15.90;8.23;;;;;;;;;;5029765;28;20240;-74
2022/10/31 02:01:21;;;;;;;16.80;9.23;;;;;;;;;;5023847;28;20194;-73
2022/10/31 02:03:47;;;;;;;12.97;8.40;;;;;;;;;;5027871;28;20174;-73
2022/10/31 02:06:19;;;;;;;16.47;9.33;;;;;;;;;;5023272;28;20178;-72
2022/10/31 02:08:44;;;;;;;13.83;9.17;;;;;;;;;;5018583;28;20198;-73
2022/10/31 02:11:10;;;;;;;15.37;9.00;;;;;;;;;;5026424;28;20170;-73
2022/10/31 02:13:35;;;;;;;16.73;9.53;;;;;;;;;;5029709;28;20182;-73
2022/10/31 02:16:00;;;;;;;17.30;8.97;;;;;;;;;;5032580;28;20178;-73
2022/10/31 02:18:27;;;;;;;15.30;9.50;;;;;;;;;;5029497;28;20241;-73
2022/10/31 02:20:57;;;;;;;12.20;8.87;;;;;;;;;;5038033;28;20885;-73
2022/10/31 02:23:42;;;;;;;14.53;8.73;;;;;;;;;;5023252;28;20202;-73
2022/10/31 02:26:10;;;;;;;15.93;10.07;;;;;;;;;;5031413;28;20640;-73
2022/10/31 02:28:55;;;;;;;16.63;10.30;;;;;;;;;;5031394;28;20194;-74
2022/10/31 02:31:33;;;;;;;17.30;10.10;;;;;;;;;;5034840;28;20187;-73
2022/10/31 02:34:18;;;;;;;15.97;9.87;;;;;;;;;;5035953;28;20189;-73
2022/10/31 02:36:43;;;;;;;13.47;8.80;;;;;;;;;;5032690;28;20174;-74
2022/10/31 02:39:14;;;;;;;13.17;9.00;;;;;;;;;;5034869;28;20576;-73
2022/10/31 02:42:06;;;;;;;11.43;7.33;;;;;;;;;;5046415;28;20772;-73
2022/10/31 02:44:31;;;;;;;13.27;7.90;;;;;;;;;;5023312;28;20221;-73
2022/10/31 02:47:03;;;;;;;14.40;7.83;;;;;;;;;;5038087;28;20166;-73
2022/10/31 02:49:47;;;;;;;15.27;8.70;;;;;;;;;;5040241;28;20582;-73
2022/10/31 02:52:24;;;;;;;21.43;9.03;;;;;;;;;;5035984;28;20186;-73
2022/10/31 02:54:49;;;;;;;11.97;7.60;;;;;;;;;;5034319;28;20182;-73
2022/10/31 02:57:17;;;;;;;13.20;7.83;;;;;;;;;;5029354;28;20170;-74
2022/10/31 02:59:45;;;;;;;13.73;8.37;;;;;;;;;;5038992;28;20284;-73
2022/10/31 03:02:16;;;;;;;11.17;7.43;;;;;;;;;;5036588;28;20265;-73
2022/10/31 03:04:47;;;;;;;12.23;8.17;;;;;;;;;;5037129;28;20170;-73
2022/10/31 03:07:18;;;;;;;14.03;8.67;;;;;;;;;;5031697;28;20175;-74
2022/10/31 03:09:52;;;;;;;11.40;7.80;;;;;;;;;;5034598;28;20286;-73
2022/10/31 03:12:33;;;;;;;12.03;7.83;;;;;;;;;;5032529;28;20173;-74
2022/10/31 03:15:05;;;;;;;12.40;7.43;;;;;;;;;;5026940;28;20170;-74
2022/10/31 03:17:35;;;;;;;11.60;7.40;;;;;;;;;;5031652;28;20244;-74
2022/10/31 03:20:03;;;;;;;12.10;7.60;;;;;;;;;;5024909;28;20289;-73
2022/10/31 03:22:29;;;;;;;11.63;7.90;;;;;;;;;;5025355;28;20174;-73
2022/10/31 03:24:55;;;;;;;13.50;7.87;;;;;;;;;;5028779;28;20268;-73
2022/10/31 03:27:23;;;;;;;18.80;9.77;;;;;;;;;;5032744;28;20182;-73
2022/10/31 03:29:50;;;;;;;23.47;10.10;;;;;;;;;;5038451;28;20676;-73
2022/10/31 03:32:18;;;;;;;16.73;11.10;;;;;;;;;;5047732;28;20631;-74
2022/10/31 03:34:45;;;;;;;17.43;10.70;;;;;;;;;;5034328;28;20257;-74
2022/10/31 03:37:12;;;;;;;21.87;12.07;;;;;;;;;;5030970;28;20256;-74
2022/10/31 03:39:38;;;;;;;20.73;12.50;;;;;;;;;;5025699;28;20206;-73
2022/10/31 03:42:04;;;;;;;21.03;12.60;;;;;;;;;;5030726;28;20235;-73
2022/10/31 03:44:29;;;;;;;21.40;12.20;;;;;;;;;;5032676;28;20182;-73
2022/10/31 03:46:54;;;;;;;24.67;13.93;;;;;;;;;;5032925;28;20178;-73
2022/10/31 03:49:20;;;;;;;27.70;13.93;;;;;;;;;;5037908;28;20194;-74
2022/10/31 03:51:49;;;;;;;24.50;13.67;;;;;;;;;;5037654;28;20238;-73
2022/10/31 03:54:18;;;;;;;21.77;13.50;;;;;;;;;;5035771;28;20186;-74
2022/10/31 03:56:49;;;;;;;28.07;15.53;;;;;;;;;;5034097;28;20186;-73
2022/10/31 03:59:16;;;;;;;21.57;14.30;;;;;;;;;;5034119;28;20274;-74
2022/10/31 04:01:44;;;;;;;23.37;15.13;;;;;;;;;;5021474;28;20217;-74
2022/10/31 04:04:10;;;;;;;27.80;15.50;;;;;;;;;;5023616;28;20658;-75
2022/10/31 04:06:36;;;;;;;26.70;15.53;;;;;;;;;;5039675;28;20178;-74
2022/10/31 04:09:03;;;;;;;46.33;16.87;;;;;;;;;;5027395;28;20206;-74
2022/10/31 04:11:30;;;;;;;28.57;16.00;;;;;;;;;;5039417;28;20183;-74
2022/10/31 04:13:56;;;;;;;29.53;16.57;;;;;;;;;;5028416;28;20246;-73
2022/10/31 04:16:22;;;;;;;31.97;17.67;;;;;;;;;;5036318;28;20187;-73
2022/10/31 04:18:48;;;;;;;34.77;17.93;;;;;;;;;;5031958;28;20222;-73
2022/10/31 04:21:13;;;;;;;32.70;17.37;;;;;;;;;;5032646;28;20252;-73
2022/10/31 04:23:38;;;;;;;31.30;16.60;;;;;;;;;;5030776;28;20233;-73
2022/10/31 04:26:03;;;;;;;32.07;19.60;;;;;;;;;;5027025;28;20610;-74
2022/10/31 04:28:29;;;;;;;30.30;17.07;;;;;;;;;;5026584;28;20199;-74
2022/10/31 04:30:54;;;;;;;32.80;19.63;;;;;;;;;;5029738;28;20688;-73
2022/10/31 04:33:19;;;;;;;33.40;19.07;;;;;;;;;;5031566;28;20182;-73
2022/10/31 04:35:44;;;;;;;36.30;18.93;;;;;;;;;;5025422;28;20178;-73
2022/10/31 04:38:10;;;;;;;29.80;19.60;;;;;;;;;;5027689;28;20227;-73
2022/10/31 04:40:35;;;;;;;39.00;19.67;;;;;;;;;;5029517;28;20229;-74
2022/10/31 04:43:00;;;;;;;33.93;18.93;;;;;;;;;;5032270;28;20586;-73
2022/10/31 04:45:25;;;;;;;36.83;19.60;;;;;;;;;;5028416;28;20186;-73
2022/10/31 04:47:50;;;;;;;36.90;20.27;;;;;;;;;;5029156;28;20170;-73
2022/10/31 04:50:16;;;;;;;31.43;17.70;;;;;;;;;;5032388;28;20202;-73
2022/10/31 04:52:42;;;;;;;29.93;17.77;;;;;;;;;;5027088;28;20257;-74
2022/10/31 04:55:07;;;;;;;32.20;18.07;;;;;;;;;;5032381;28;20210;-74
2022/10/31 04:57:39;;;;;;;35.17;17.63;;;;;;;;;;5030036;28;20271;-74
2022/10/31 05:00:05;;;;;;;30.10;17.23;;;;;;;;;;5025270;28;20207;-72
2022/10/31 05:02:30;;;;;;;32.70;17.97;;;;;;;;;;5024968;28;20683;-72
2022/10/31 05:04:55;;;;;;;29.97;18.47;;;;;;;;;;5032747;28;20253;-74
2022/10/31 05:07:20;;;;;;;50.33;27.30;;;;;;;;;;5029299;28;20637;-74
2022/10/31 05:09:45;;;;;;;44.80;23.73;;;;;;;;;;5028137;28;20206;-74
2022/10/31 05:12:11;;;;;;;28.53;18.47;;;;;;;;;;5027068;28;20179;-73
2022/10/31 05:14:36;;;;;;;30.23;17.17;;;;;;;;;;5028383;28;21330;-74
2022/10/31 05:17:01;;;;;;;32.50;17.40;;;;;;;;;;5036912;28;20221;-72
2022/10/31 05:19:26;;;;;;;29.03;17.10;;;;;;;;;;5056889;28;20583;-73
2022/10/31 05:21:51;;;;;;;32.93;17.03;;;;;;;;;;5031512;28;20209;-74
2022/10/31 05:24:16;;;;;;;27.90;16.93;;;;;;;;;;5029829;28;20170;-74
2022/10/31 05:26:42;;;;;;;30.77;17.17;;;;;;;;;;5024627;28;20655;-74
2022/10/31 05:29:07;;;;;;;29.37;15.77;;;;;;;;;;5031236;28;20209;-74
2022/10/31 05:31:32;;;;;;;26.17;15.73;;;;;;;;;;5025084;28;20265;-74
2022/10/31 05:33:57;;;;;;;27.83;15.40;;;;;;;;;;5031874;28;20182;-72
2022/10/31 05:36:22;;;;;;;29.63;16.47;;;;;;;;;;5029508;28;20190;-74
2022/10/31 05:38:48;;;;;;;25.87;15.13;;;;;;;;;;5020894;28;20624;-74
2022/10/31 05:41:13;;;;;;;24.47;14.53;;;;;;;;;;5021501;28;20211;-74
2022/10/31 05:43:38;;;;;;;25.10;15.83;;;;;;;;;;5024741;28;20170;-75
2022/10/31 05:46:03;;;;;;;29.63;16.70;;;;;;;;;;5042302;28;20636;-73
2022/10/31 05:48:28;;;;;;;25.23;15.73;;;;;;;;;;5024238;28;20174;-73
2022/10/31 05:50:53;;;;;;;25.97;15.33;;;;;;;;;;5020401;28;20644;-73
2022/10/31 05:53:19;;;;;;;28.57;16.10;;;;;;;;;;5021006;28;20206;-73
2022/10/31 05:55:44;;;;;;;33.83;17.63;;;;;;;;;;5029765;28;20194;-73
2022/10/31 05:58:10;;;;;;;28.93;15.37;;;;;;;;;;5022577;28;20300;-73
2022/10/31 06:00:35;;;;;;;30.90;17.73;;;;;;;;;;5023036;28;20554;-73
2022/10/31 06:03:05;;;;;;;33.63;17.90;;;;;;;;;;5030092;28;20170;-73
2022/10/31 06:05:30;;;;;;;30.50;16.03;;;;;;;;;;5029071;28;20178;-73
2022/10/31 06:07:56;;;;;;;32.23;16.87;;;;;;;;;;5033364;28;20175;-73
2022/10/31 06:10:21;;;;;;;32.83;17.83;;;;;;;;;;5017063;28;20199;-75
2022/10/31 06:12:47;;;;;;;32.97;17.77;;;;;;;;;;5026023;28;20195;-73
2022/10/31 06:15:12;;;;;;;30.93;17.07;;;;;;;;;;5021039;28;20277;-73
2022/10/31 06:17:37;;;;;;;35.17;18.37;;;;;;;;;;5022419;28;20189;-73
2022/10/31 06:20:03;;;;;;;32.40;18.73;;;;;;;;;;5029622;28;20198;-73
2022/10/31 06:22:28;;;;;;;42.97;19.77;;;;;;;;;;5027162;28;20608;-73
2022/10/31 06:24:54;;;;;;;44.60;19.97;;;;;;;;;;5031727;28;20174;-73
2022/10/31 06:27:19;;;;;;;35.23;19.30;;;;;;;;;;5026825;28;20171;-73
2022/10/31 06:29:45;;;;;;;32.33;19.40;;;;;;;;;;5031049;28;20206;-74
2022/10/31 06:32:11;;;;;;;40.00;19.97;;;;;;;;;;5022590;28;20610;-72
2022/10/31 06:34:36;;;;;;;31.97;18.03;;;;;;;;;;5036029;28;20192;-74
2022/10/31 06:37:01;;;;;;;37.90;19.40;;;;;;;;;;5037421;28;20535;-75
2022/10/31 06:39:27;;;;;;;36.30;18.80;;;;;;;;;;5024587;28;20214;-73
2022/10/31 06:41:52;;;;;;;38.30;19.77;;;;;;;;;;5028566;28;20691;-73
2022/10/31 06:44:17;;;;;;;33.17;19.43;;;;;;;;;;5016742;28;20191;-75
2022/10/31 06:46:42;;;;;;;39.87;20.60;;;;;;;;;;5029670;28;20258;-74
2022/10/31 06:49:07;;;;;;;41.77;20.47;;;;;;;;;;5024119;28;20191;-74
2022/10/31 06:51:32;;;;;;;34.37;19.83;;;;;;;;;;5029909;28;20197;-74
2022/10/31 06:53:58;;;;;;;35.53;19.03;;;;;;;;;;5026642;28;20181;-72
2022/10/31 06:56:23;;;;;;;41.13;20.13;;;;;;;;;;5026909;28;20335;-75
2022/10/31 06:58:48;;;;;;;39.90;21.00;;;;;;;;;;5020406;28;20201;-75
2022/10/31 07:01:13;;;;;;;48.40;22.23;;;;;;;;;;5024248;28;20214;-74
2022/10/31 07:03:38;;;;;;;41.97;22.57;;;;;;;;;;5028327;28;20269;-74
2022/10/31 07:06:04;;;;;;;45.80;21.73;;;;;;;;;;5025161;28;20166;-74
2022/10/31 07:08:29;;;;;;;51.33;23.53;;;;;;;;;;5028829;28;20182;-73
2022/10/31 07:10:55;;;;;;;58.47;24.77;;;;;;;;;;5021685;28;20189;-74
2022/10/31 07:13:25;;;;;;;63.23;26.27;;;;;;;;;;5022511;28;20189;-74
2022/10/31 07:15:50;;;;;;;49.77;23.47;;;;;;;;;;5021334;28;20224;-75
2022/10/31 07:18:16;;;;;;;48.33;21.80;;;;;;;;;;5023283;28;20194;-74
2022/10/31 07:20:41;;;;;;;50.70;22.43;;;;;;;;;;5026221;28;20202;-74
2022/10/31 07:23:07;;;;;;;52.90;22.83;;;;;;;;;;5022678;28;20222;-74
2022/10/31 07:25:32;;;;;;;54.93;22.73;;;;;;;;;;5031316;28;20572;-74
2022/10/31 07:27:57;;;;;;;46.83;22.57;;;;;;;;;;5020527;28;20175;-74
2022/10/31 07:30:23;;;;;;;47.23;23.03;;;;;;;;;;5024893;28;20210;-74
2022/10/31 07:32:49;;;;;;;42.67;22.03;;;;;;;;;;5025349;28;20178;-74
2022/10/31 07:35:16;;;;;;;45.43;23.53;;;;;;;;;;5032858;28;20543;-74
2022/10/31 07:37:41;;;;;;;51.27;23.03;;;;;;;;;;5023701;28;20175;-74
2022/10/31 07:40:07;;;;;;;45.27;23.63;;;;;;;;;;5035073;28;20714;-74
2022/10/31 07:42:36;;;;;;;46.07;23.90;;;;;;;;;;5018273;28;20178;-73
2022/10/31 07:45:02;;;;;;;51.93;24.73;;;;;;;;;;5032557;28;20679;-74
2022/10/31 07:47:27;;;;;;;46.27;23.57;;;;;;;;;;5023925;28;20175;-73
2022/10/31 07:49:53;;;;;;;53.53;24.33;;;;;;;;;;5017236;28;20193;-74
2022/10/31 07:52:18;;;;;;;46.25;23.45;;;;;;;;;;5030675;28;20210;-74
2022/10/31 07:54:43;;;;;;;58.85;26.15;;;;;;;;;;5026429;28;20287;-75
2022/10/31 07:57:08;;;;;;;55.72;26.95;;;;;;;;;;5023052;28;20183;-75
2022/10/31 07:59:33;;;;;;;60.92;27.08;;;;;;;;;;5027992;28;20214;-74
2022/10/31 08:01:58;;;;;;;52.47;25.70;;;;;;;;;;5035007;28;20241;-74
2022/10/31 08:04:24;;;;;;;57.85;26.73;;;;;;;;;;5050321;28;20175;-74
2022/10/31 08:06:49;;;;;;;60.92;27.33;;;;;;;;;;5024159;28;20166;-74
2022/10/31 08:09:14;;;;;;;57.40;28.92;;;;;;;;;;5029190;28;20206;-74
2022/10/31 08:11:39;;;;;;;54.22;28.35;;;;;;;;;;5026384;28;20254;-74
2022/10/31 08:14:04;;;;;;;57.63;29.42;;;;;;;;;;5029302;28;20552;-74
2022/10/31 08:16:30;;;;;;;54.78;26.50;;;;;;;;;;5026646;28;20199;-74
2022/10/31 08:18:55;;;;;;;53.88;28.25;;;;;;;;;;5023951;28;20248;-74
2022/10/31 08:21:21;;;;;;;60.80;30.25;;;;;;;;;;5031944;28;20263;-74
2022/10/31 08:23:46;;;;;;;55.03;27.60;;;;;;;;;;5025812;28;20253;-73
2022/10/31 08:26:11;;;;;;;50.38;29.10;;;;;;;;;;5018496;28;20233;-74
2022/10/31 08:28:36;;;;;;;60.38;29.70;;;;;;;;;;5028691;28;20590;-74
2022/10/31 08:31:01;;;;;;;55.92;29.38;;;;;;;;;;5034010;28;20310;-74
2022/10/31 08:33:27;;;;;;;55.05;29.58;;;;;;;;;;5025682;28;20249;-74
2022/10/31 08:35:52;;;;;;;54.92;27.42;;;;;;;;;;5030676;28;20558;-74
2022/10/31 08:38:17;;;;;;;55.88;27.80;;;;;;;;;;5028428;28;20639;-74
2022/10/31 08:40:43;;;;;;;56.22;28.45;;;;;;;;;;5019503;28;20206;-72
2022/10/31 08:43:12;;;;;;;57.20;29.08;;;;;;;;;;5027780;28;20177;-74
2022/10/31 08:45:37;;;;;;;48.45;26.08;;;;;;;;;;5033211;28;20221;-74
2022/10/31 08:48:04;;;;;;;50.60;28.17;;;;;;;;;;5022739;28;20206;-73
2022/10/31 08:50:30;;;;;;;46.65;27.08;;;;;;;;;;5024229;28;20692;-73
2022/10/31 08:53:05;;;;;;;55.17;27.45;;;;;;;;;;5024893;28;20183;-73
2022/10/31 08:55:30;;;;;;;46.85;25.83;;;;;;;;;;5025317;28;20182;-73
2022/10/31 08:57:56;;;;;;;48.05;26.90;;;;;;;;;;5032237;28;20186;-73
2022/10/31 09:00:21;;;;;;;41.63;24.55;;;;;;;;;;5027586;28;20201;-73
2022/10/31 09:02:46;;;;;;;42.38;25.55;;;;;;;;;;5028830;28;20240;-72
2022/10/31 09:05:12;;;;;;;44.35;26.50;;;;;;;;;;5027954;28;20581;-72
2022/10/31 09:07:37;;;;;;;39.13;24.42;;;;;;;;;;5025384;28;20194;-73
2022/10/31 09:10:02;;;;;;;38.72;25.65;;;;;;;;;;5025708;28;20833;-73
2022/10/31 09:12:27;;;;;;;33.17;21.75;;;;;;;;;;5025407;28;20186;-73
2022/10/31 09:14:52;;;;;;;38.08;23.58;;;;;;;;;;5021710;28;20182;-73
2022/10/31 09:17:18;;;;;;;34.45;21.85;;;;;;;;;;5030445;28;20185;-73
2022/10/31 09:19:43;;;;;;;28.73;20.95;;;;;;;;;;5025031;28;20775;-73
2022/10/31 09:22:08;;;;;;;34.50;21.02;;;;;;;;;;5023325;28;20768;-73
2022/10/31 09:24:33;;;;;;;37.10;22.60;;;;;;;;;;5028685;28;20739;-72
2022/10/31 09:26:58;;;;;;;28.90;19.02;;;;;;;;;;5029168;28;20222;-73
2022/10/31 09:29:24;;;;;;;29.88;19.65;;;;;;;;;;5024548;28;20213;-74
2022/10/31 09:31:49;;;;;;;28.30;19.50;;;;;;;;;;5030849;28;20667;-74
2022/10/31 09:34:14;;;;;;;29.90;20.35;;;;;;;;;;5029199;28;20316;-71
2022/10/31 09:36:39;;;;;;;33.92;21.05;;;;;;;;;;5027391;28;20269;-70
2022/10/31 09:39:04;;;;;;;26.80;19.02;;;;;;;;;;5031682;28;20457;-72
2022/10/31 09:41:48;;;;;;;28.20;19.35;;;;;;;;;;5026497;28;20210;-72
2022/10/31 09:44:28;;;;;;;30.73;20.80;;;;;;;;;;5030787;28;20239;-72
2022/10/31 09:46:54;;;;;;;25.63;18.83;;;;;;;;;;5028840;28;20187;-71
2022/10/31 09:49:38;;;;;;;21.85;15.95;;;;;;;;;;5030769;28;20585;-72
2022/10/31 09:52:09;;;;;;;25.48;18.75;;;;;;;;;;5024286;28;20206;-72
2022/10/31 09:54:42;;;;;;;22.02;17.08;;;;;;;;;;5029934;28;20205;-71
2022/10/31 09:57:13;;;;;;;23.13;17.58;;;;;;;;;;5028853;28;20197;-71
2022/10/31 09:59:39;;;;;;;19.92;15.77;;;;;;;;;;5031047;28;20699;-73
2022/10/31 10:02:23;;;;;;;23.98;16.67;;;;;;;;;;5020420;28;20237;-73
2022/10/31 10:04:58;;;;;;;20.40;16.00;;;;;;;;;;5025756;28;20170;-72
2022/10/31 10:07:32;;;;;;;20.42;16.27;;;;;;;;;;5028964;28;20395;-73
2022/10/31 10:10:05;;;;;;;18.05;14.90;;;;;;;;;;5040846;28;20225;-72
2022/10/31 10:12:43;;;;;;;19.30;15.50;;;;;;;;;;5041496;28;20721;-72
2022/10/31 10:15:08;;;;;;;17.85;14.80;;;;;;;;;;5046772;28;20221;-71
2022/10/31 10:17:39;;;;;;;17.17;13.03;;;;;;;;;;5021718;28;20206;-71
2022/10/31 10:20:17;;;;;;;16.42;14.25;;;;;;;;;;5026906;28;20462;-71
2022/10/31 10:22:45;;;;;;;17.77;13.85;;;;;;;;;;5027102;28;20190;-71
2022/10/31 10:25:10;;;;;;;17.98;14.07;;;;;;;;;;5024430;28;20229;-71
2022/10/31 10:27:44;;;;;;;19.83;14.43;;;;;;;;;;5028577;28;20174;-71
2022/10/31 10:30:15;;;;;;;16.23;13.90;;;;;;;;;;5023469;28;20488;-71
2022/10/31 10:32:46;;;;;;;16.95;13.68;;;;;;;;;;5017670;28;20178;-74
2022/10/31 10:35:11;;;;;;;20.25;14.75;;;;;;;;;;5026858;28;20265;-71
2022/10/31 10:37:39;;;;;;;18.90;14.77;;;;;;;;;;5024261;28;20634;-71
2022/10/31 10:40:11;;;;;;;20.13;13.77;;;;;;;;;;5025480;28;20202;-71
2022/10/31 10:48:10;;;;;;;22.15;15.65;;;;;;;;;;5028415;28;20674;-71
2022/10/31 10:50:38;;;;;;;20.05;15.00;;;;;;;;;;5021767;28;20598;-72
2022/10/31 10:53:03;;;;;;;20.70;14.38;;;;;;;;;;5026555;28;20205;-71
2022/10/31 10:55:47;;;;;;;24.27;17.13;;;;;;;;;;5029316;28;20664;-71
2022/10/31 10:58:13;;;;;;;25.25;17.63;;;;;;;;;;5026097;28;20736;-71
2022/10/31 11:00:42;;;;;;;21.65;15.98;;;;;;;;;;5018234;28;20253;-71
2022/10/31 11:03:08;;;;;;;19.83;15.57;;;;;;;;;;5026941;28;20182;-71
2022/10/31 11:05:44;;;;;;;27.80;15.98;;;;;;;;;;5015096;28;20183;-71
2022/10/31 11:08:10;;;;;;;19.67;14.63;;;;;;;;;;5026508;28;20190;-71
2022/10/31 11:10:35;;;;;;;19.23;15.65;;;;;;;;;;5025910;28;20194;-71
2022/10/31 11:13:21;;;;;;;18.02;13.80;;;;;;;;;;5026934;28;20535;-72
2022/10/31 11:15:57;;;;;;;19.40;13.32;;;;;;;;;;5027400;28;20193;-72
2022/10/31 11:18:24;;;;;;;21.00;14.25;;;;;;;;;;5016759;28;20206;-73
2022/10/31 11:20:50;;;;;;;20.10;14.15;;;;;;;;;;5040402;28;20292;-70
2022/10/31 11:23:17;;;;;;;19.92;14.63;;;;;;;;;;5019409;28;20559;-70
2022/10/31 11:26:02;;;;;;;21.50;13.57;;;;;;;;;;5025263;28;20175;-70
2022/10/31 11:28:29;;;;;;;19.67;14.00;;;;;;;;;;5026286;28;20277;-71
2022/10/31 11:30:54;;;;;;;21.67;14.07;;;;;;;;;;5020837;28;20261;-70
2022/10/31 11:33:23;;;;;;;21.77;13.63;;;;;;;;;;5025410;28;20278;-72
2022/10/31 11:35:48;;;;;;;20.95;14.35;;;;;;;;;;5028035;28;20228;-72
2022/10/31 11:38:19;;;;;;;22.85;15.30;;;;;;;;;;5028224;28;20238;-72
2022/10/31 11:40:54;;;;;;;23.35;14.57;;;;;;;;;;5024617;28;20285;-72
2022/10/31 11:43:20;;;;;;;22.15;15.27;;;;;;;;;;5024901;28;20174;-72
2022/10/31 11:45:46;;;;;;;25.75;16.40;;;;;;;;;;5039026;28;20173;-72
2022/10/31 11:48:22;;;;;;;23.05;15.55;;;;;;;;;;5023117;28;20183;-70
2022/10/31 11:50:49;;;;;;;20.85;14.57;;;;;;;;;;5016642;28;20193;-72
2022/10/31 11:53:24;;;;;;;22.85;16.10;;;;;;;;;;5026819;28;20197;-72
2022/10/31 11:56:00;;;;;;;27.90;17.80;;;;;;;;;;5026013;28;20233;-70
2022/10/31 11:58:25;;;;;;;22.95;15.02;;;;;;;;;;5041283;28;20547;-72
2022/10/31 12:00:52;;;;;;;26.02;16.58;;;;;;;;;;5025080;28;20202;-73
2022/10/31 12:03:23;;;;;;;23.73;15.18;;;;;;;;;;5028758;28;20181;-70
2022/10/31 12:06:00;;;;;;;27.83;18.70;;;;;;;;;;5026553;28;20254;-70
2022/10/31 12:08:29;;;;;;;27.25;17.42;;;;;;;;;;5020134;28;20184;-70
2022/10/31 12:11:07;;;;;;;26.33;17.42;;;;;;;;;;5016236;28;20667;-70
2022/10/31 12:13:32;;;;;;;28.15;18.17;;;;;;;;;;5021279;28;20178;-71
2022/10/31 12:16:04;;;;;;;29.93;17.03;;;;;;;;;;5019137;28;20180;-71
2022/10/31 12:18:38;;;;;;;29.20;19.05;;;;;;;;;;5029731;28;20427;-71
2022/10/31 12:21:12;;;;;;;27.05;18.48;;;;;;;;;;5028979;28;20240;-71
2022/10/31 12:23:50;;;;;;;29.00;18.33;;;;;;;;;;5023969;28;20617;-71
2022/10/31 12:26:21;;;;;;;25.40;17.35;;;;;;;;;;5011566;28;20171;-71
2022/10/31 12:28:52;;;;;;;29.38;19.27;;;;;;;;;;5018179;28;20202;-71
2022/10/31 12:31:39;;;;;;;31.27;18.40;;;;;;;;;;5017389;28;20193;-71
2022/10/31 12:34:27;;;;;;;28.58;18.00;;;;;;;;;;5038705;28;20184;-71
2022/10/31 12:37:18;;;;;;;31.38;18.48;;;;;;;;;;5024171;28;20636;-71
2022/10/31 12:39:50;;;;;;;34.00;19.55;;;;;;;;;;5019016;28;20214;-71
2022/10/31 12:42:18;;;;;;;27.45;19.10;;;;;;;;;;5019802;28;20723;-71
2022/10/31 12:44:43;;;;;;;27.80;17.80;;;;;;;;;;5016966;28;20727;-71
2022/10/31 12:47:30;;;;;;;28.60;17.20;;;;;;;;;;5023265;28;20257;-71
2022/10/31 12:50:14;;;;;;;27.08;17.83;;;;;;;;;;5024542;28;20447;-72
2022/10/31 12:52:48;;;;;;;32.17;18.65;;;;;;;;;;5028037;28;20182;-72
2022/10/31 12:55:26;;;;;;;28.65;17.98;;;;;;;;;;5023688;28;20224;-70
2022/10/31 12:57:54;;;;;;;27.00;18.35;;;;;;;;;;5027346;28;20182;-70
2022/10/31 13:00:19;;;;;;;28.67;17.08;;;;;;;;;;5017358;28;20214;-71
2022/10/31 13:02:53;;;;;;;27.17;17.30;;;;;;;;;;5025655;28;20170;-71
2022/10/31 13:05:29;;;;;;;23.85;16.98;;;;;;;;;;5036214;28;20698;-71
2022/10/31 13:07:57;;;;;;;21.20;16.02;;;;;;;;;;5027179;28;20210;-71
2022/10/31 13:10:29;;;;;;;26.05;17.50;;;;;;;;;;5028479;28;20201;-73
2022/10/31 13:12:57;;;;;;;29.63;17.95;;;;;;;;;;5037329;28;20702;-71
2022/10/31 13:15:24;;;;;;;26.50;16.23;;;;;;;;;;5025166;28;20186;-71
2022/10/31 13:18:01;;;;;;;27.83;17.67;;;;;;;;;;5038326;28;20193;-71
2022/10/31 13:20:37;;;;;;;26.33;17.52;;;;;;;;;;5025561;28;20212;-71
2022/10/31 13:23:12;;;;;;;23.42;17.25;;;;;;;;;;5024955;28;20181;-71
2022/10/31 13:25:44;;;;;;;28.55;17.38;;;;;;;;;;5024001;28;20182;-71
2022/10/31 13:28:22;;;;;;;30.50;18.30;;;;;;;;;;5022359;28;20186;-71
2022/10/31 13:30:49;;;;;;;25.88;17.35;;;;;;;;;;5027832;28;20620;-71
2022/10/31 13:33:17;;;;;;;26.67;17.30;;;;;;;;;;5023559;28;20670;-71
2022/10/31 13:36:02;;;;;;;33.42;19.00;;;;;;;;;;5021919;28;20225;-71
2022/10/31 13:38:36;;;;;;;32.65;20.17;;;;;;;;;;5022746;28;20664;-71
2022/10/31 13:41:04;;;;;;;28.90;19.00;;;;;;;;;;5017923;28;20211;-71
2022/10/31 13:43:41;;;;;;;29.80;17.92;;;;;;;;;;5021252;28;20202;-71
2022/10/31 13:46:23;;;;;;;30.98;19.02;;;;;;;;;;5024825;28;20172;-71
2022/10/31 13:48:48;;;;;;;30.73;19.35;;;;;;;;;;5028832;28;20205;-71
2022/10/31 13:51:23;;;;;;;28.48;18.27;;;;;;;;;;5031702;28;20182;-71
2022/10/31 13:53:51;;;;;;;29.42;18.85;;;;;;;;;;5019945;28;20174;-71
2022/10/31 13:56:18;;;;;;;27.88;17.65;;;;;;;;;;5025700;28;20694;-71
2022/10/31 13:58:56;;;;;;;29.65;19.95;;;;;;;;;;5022006;28;20226;-71
2022/10/31 14:01:22;;;;;;;32.15;18.98;;;;;;;;;;5026858;28;20202;-71
2022/10/31 14:03:55;;;;;;;31.52;19.73;;;;;;;;;;5028212;28;20174;-71
2022/10/31 14:06:22;;;;;;;32.33;19.98;;;;;;;;;;5026130;28;20190;-71
2022/10/31 14:08:49;;;;;;;31.33;19.17;;;;;;;;;;5026674;28;20191;-71
2022/10/31 14:11:23;;;;;;;29.52;20.00;;;;;;;;;;5027349;28;20182;-71
2022/10/31 14:13:48;;;;;;;32.05;19.42;;;;;;;;;;5022110;28;20179;-71
2022/10/31 14:16:24;;;;;;;28.88;20.17;;;;;;;;;;5029995;28;20185;-71
2022/10/31 14:19:04;;;;;;;33.05;21.17;;;;;;;;;;5023700;28;20198;-72
2022/10/31 14:21:43;;;;;;;31.35;19.77;;;;;;;;;;5034582;28;20206;-71
2022/10/31 14:24:29;;;;;;;33.97;20.77;;;;;;;;;;5024313;28;20174;-71
2022/10/31 14:26:54;;;;;;;36.80;21.67;;;;;;;;;;5022469;28;20682;-71
2022/10/31 14:29:20;;;;;;;33.50;21.50;;;;;;;;;;5038933;28;20312;-72
2022/10/31 14:31:51;;;;;;;36.05;19.58;;;;;;;;;;5017290;28;20410;-71
2022/10/31 14:34:20;;;;;;;30.23;22.20;;;;;;;;;;5020188;28;20222;-71